Time;durP1;ratioP1;P1;durP2;ratioP2;P2;SDS_P1;SDS_P2;PMS_P1;PMS_P2;Temp;Humidity;BMP_temperature;BMP_pressure;BME280_temperature;BME280_humidity;BME280_pressure;Samples;Min_cycle;Max_cycle;Signal;HPM_P1;HPM_P2
2021/05/22 00:01:22;;;;;;;12.38;4.20;;;13.60;83.60;;;;;;5063209;28;20034;-60
2021/05/22 00:03:48;;;;;;;10.70;3.78;;;13.60;83.70;;;;;;5045800;28;20036;-60
2021/05/22 00:06:14;;;;;;;6.63;4.35;;;13.60;83.50;;;;;;5059611;28;20055;-61
2021/05/22 00:08:39;;;;;;;9.20;3.88;;;13.60;83.50;;;;;;5058117;28;20037;-61
2021/05/22 00:11:05;;;;;;;7.18;3.78;;;13.60;83.40;;;;;;5062159;28;20445;-60
2021/05/22 00:13:31;;;;;;;9.20;3.72;;;13.60;83.40;;;;;;5045026;28;20526;-61
2021/05/22 00:15:56;;;;;;;7.28;3.70;;;13.50;83.30;;;;;;5060967;28;20035;-60
2021/05/22 00:18:21;;;;;;;10.10;4.00;;;13.50;83.20;;;;;;5044953;28;20361;-61
2021/05/22 00:20:47;;;;;;;10.27;3.53;;;13.60;83.20;;;;;;5057702;28;20660;-60
2021/05/22 00:23:14;;;;;;;5.95;3.78;;;13.50;83.10;;;;;;5058763;28;20317;-60
2021/05/22 00:25:39;;;;;;;6.55;3.25;;;13.50;83.10;;;;;;5040793;28;20511;-60
2021/05/22 00:28:05;;;;;;;4.40;3.05;;;13.50;83.10;;;;;;5033899;28;20041;-61
2021/05/22 00:30:31;;;;;;;5.97;3.35;;;13.50;83.10;;;;;;5056979;28;20027;-60
2021/05/22 00:32:56;;;;;;;8.18;3.53;;;13.50;83.10;;;;;;5064050;28;20661;-61
2021/05/22 00:35:21;;;;;;;5.68;3.33;;;13.40;83.00;;;;;;5045032;28;20680;-60
2021/05/22 00:37:47;;;;;;;9.63;3.22;;;13.50;83.00;;;;;;5059423;28;20052;-60
2021/05/22 00:40:14;;;;;;;7.20;2.83;;;13.40;83.00;;;;;;5046947;28;20143;-60
2021/05/22 00:42:41;;;;;;;5.57;3.03;;;13.40;83.00;;;;;;5051995;28;20052;-61
2021/05/22 00:45:07;;;;;;;5.68;2.85;;;13.40;83.10;;;;;;5059175;28;20020;-61
2021/05/22 00:47:33;;;;;;;5.65;3.15;;;13.40;83.10;;;;;;5064554;28;20020;-60
2021/05/22 00:49:59;;;;;;;5.15;3.33;;;13.40;83.00;;;;;;5040447;28;20369;-61
2021/05/22 00:52:24;;;;;;;5.78;3.50;;;13.30;83.00;;;;;;5057384;28;20021;-61
2021/05/22 00:54:50;;;;;;;8.50;4.07;;;13.30;83.10;;;;;;5023661;28;20036;-61
2021/05/22 00:57:16;;;;;;;5.95;4.55;;;13.30;83.00;;;;;;5043028;28;20028;-60
2021/05/22 00:59:42;;;;;;;6.70;4.05;;;13.30;83.00;;;;;;5042072;28;20025;-61
2021/05/22 01:02:09;;;;;;;5.70;3.88;;;13.30;83.00;;;;;;5045497;28;20036;-60
2021/05/22 01:04:34;;;;;;;5.95;3.35;;;13.30;82.90;;;;;;5062768;28;20460;-60
2021/05/22 01:07:00;;;;;;;4.97;3.35;;;13.30;82.90;;;;;;5061749;28;20040;-61
2021/05/22 01:09:25;;;;;;;5.53;3.92;;;13.30;83.00;;;;;;5042395;28;20071;-61
2021/05/22 01:11:58;;;;;;;7.00;4.00;;;13.20;82.90;;;;;;5029855;28;20056;-60
2021/05/22 01:14:25;;;;;;;6.85;4.40;;;13.20;82.90;;;;;;5025937;28;20535;-60
2021/05/22 01:16:55;;;;;;;5.10;3.95;;;13.20;82.90;;;;;;5060506;28;20514;-61
2021/05/22 01:19:37;;;;;;;9.73;4.32;;;13.20;82.90;;;;;;5044426;28;20094;-61
2021/05/22 01:22:03;;;;;;;6.68;3.47;;;13.20;82.80;;;;;;5038513;28;20045;-61
2021/05/22 01:24:30;;;;;;;5.20;3.10;;;13.20;82.80;;;;;;5044132;28;20043;-61
2021/05/22 01:26:56;;;;;;;4.25;3.05;;;13.10;82.70;;;;;;5029537;28;20025;-60
2021/05/22 01:29:21;;;;;;;3.67;2.78;;;13.20;82.70;;;;;;5044044;28;20507;-60
2021/05/22 01:31:47;;;;;;;3.85;2.58;;;13.20;82.60;;;;;;5044510;28;20090;-62
2021/05/22 01:34:12;;;;;;;4.03;2.45;;;13.10;82.50;;;;;;5047715;28;20021;-61
2021/05/22 01:36:38;;;;;;;7.07;3.03;;;13.10;82.40;;;;;;5045695;28;20103;-60
2021/05/22 01:39:04;;;;;;;5.85;2.88;;;13.10;82.40;;;;;;5065298;28;20056;-61
2021/05/22 01:41:29;;;;;;;3.67;2.92;;;13.10;82.40;;;;;;5063368;28;20222;-60
2021/05/22 01:43:56;;;;;;;3.80;2.72;;;13.10;82.30;;;;;;5032267;28;20242;-61
2021/05/22 01:46:22;;;;;;;4.43;2.53;;;13.10;82.40;;;;;;5042844;28;20040;-61
2021/05/22 01:48:48;;;;;;;5.43;2.95;;;13.10;82.40;;;;;;5049349;28;20039;-61
2021/05/22 01:51:15;;;;;;;3.60;2.63;;;13.10;82.30;;;;;;5045499;28;20542;-61
2021/05/22 01:53:41;;;;;;;4.35;2.25;;;13.10;82.40;;;;;;5046047;28;20268;-60
2021/05/22 01:56:06;;;;;;;4.38;2.47;;;13.10;82.30;;;;;;5068245;28;20384;-60
2021/05/22 01:58:32;;;;;;;5.60;2.60;;;13.10;82.30;;;;;;5045309;28;20024;-60
2021/05/22 02:00:57;;;;;;;4.15;2.38;;;13.00;82.30;;;;;;5048766;28;20492;-60
2021/05/22 02:03:25;;;;;;;2.95;2.25;;;13.00;82.30;;;;;;5048441;28;20040;-61
2021/05/22 02:05:51;;;;;;;2.97;2.28;;;13.00;82.30;;;;;;5047071;28;20036;-60
2021/05/22 02:08:19;;;;;;;3.40;2.20;;;13.00;82.30;;;;;;5043287;28;20124;-60
2021/05/22 02:10:48;;;;;;;3.95;2.10;;;13.00;82.30;;;;;;5065923;28;20033;-61
2021/05/22 02:13:14;;;;;;;4.93;2.38;;;13.00;82.30;;;;;;5048550;28;20036;-61
2021/05/22 02:15:40;;;;;;;1.75;1.55;;;13.10;82.30;;;;;;5048692;28;20037;-61
2021/05/22 02:18:06;;;;;;;3.60;2.30;;;13.00;82.20;;;;;;5047535;28;20033;-60
2021/05/22 02:20:32;;;;;;;2.92;2.17;;;13.00;82.30;;;;;;5048854;28;20144;-61
2021/05/22 02:22:57;;;;;;;3.40;2.22;;;12.90;82.20;;;;;;5064041;28;20099;-61
2021/05/22 02:25:23;;;;;;;3.92;2.08;;;12.90;82.40;;;;;;5046869;28;20043;-61
2021/05/22 02:27:48;;;;;;;3.00;2.40;;;12.90;82.50;;;;;;5045632;28;20472;-60
2021/05/22 02:30:15;;;;;;;4.40;1.92;;;12.90;82.60;;;;;;5031573;28;20404;-61
2021/05/22 02:32:42;;;;;;;2.03;1.67;;;12.90;82.60;;;;;;5047060;28;20032;-61
2021/05/22 02:35:08;;;;;;;2.55;2.00;;;12.90;82.70;;;;;;5047524;28;20042;-61
2021/05/22 02:37:34;;;;;;;2.78;2.15;;;12.90;82.60;;;;;;5046038;28;20116;-61
2021/05/22 02:40:00;;;;;;;3.78;2.20;;;12.90;82.70;;;;;;5040447;28;20115;-61
2021/05/22 02:42:27;;;;;;;2.70;1.70;;;12.90;82.80;;;;;;5046875;28;20039;-60
2021/05/22 02:44:52;;;;;;;2.40;1.70;;;12.90;82.70;;;;;;5047571;28;20078;-61
2021/05/22 02:47:21;;;;;;;2.75;1.83;;;12.80;82.70;;;;;;5047290;28;20044;-61
2021/05/22 02:49:47;;;;;;;2.85;1.85;;;12.90;82.80;;;;;;5048008;28;20084;-61
2021/05/22 02:52:18;;;;;;;2.42;1.90;;;12.90;82.80;;;;;;5046995;28;20021;-60
2021/05/22 02:54:45;;;;;;;3.45;1.63;;;12.90;82.80;;;;;;5047716;28;20043;-61
2021/05/22 02:57:11;;;;;;;1.60;1.30;;;12.90;82.80;;;;;;5047237;28;20025;-61
2021/05/22 02:59:37;;;;;;;2.88;1.80;;;12.90;82.90;;;;;;5047681;28;20086;-61
2021/05/22 03:02:03;;;;;;;2.45;1.70;;;12.90;82.90;;;;;;5047081;28;20033;-60
2021/05/22 03:04:32;;;;;;;2.47;1.52;;;12.80;82.80;;;;;;5047363;28;20377;-61
2021/05/22 03:06:58;;;;;;;1.95;1.45;;;12.80;82.90;;;;;;5047116;28;20037;-61
2021/05/22 03:09:24;;;;;;;3.42;1.40;;;12.80;82.80;;;;;;5046723;28;20052;-61
2021/05/22 03:11:49;;;;;;;1.85;1.38;;;12.80;83.60;;;;;;5032587;28;20021;-61
2021/05/22 03:14:15;;;;;;;1.88;1.50;;;12.80;83.00;;;;;;5066106;28;20387;-61
2021/05/22 03:16:40;;;;;;;2.00;1.40;;;12.80;83.10;;;;;;5046060;28;20025;-61
2021/05/22 03:19:06;;;;;;;2.30;1.27;;;12.80;83.20;;;;;;5064364;28;20127;-60
2021/05/22 03:21:31;;;;;;;2.13;1.40;;;12.80;83.30;;;;;;5064276;28;20059;-61
2021/05/22 03:23:57;;;;;;;2.40;1.30;;;12.70;83.20;;;;;;5065248;28;20117;-61
2021/05/22 03:26:22;;;;;;;2.13;1.10;;;12.70;83.30;;;;;;5065133;28;20292;-61
2021/05/22 03:28:48;;;;;;;1.77;1.30;;;12.70;83.30;;;;;;5065539;28;20765;-61
2021/05/22 03:31:13;;;;;;;2.03;1.23;;;12.70;83.40;;;;;;5065436;28;20040;-61
2021/05/22 03:33:39;;;;;;;3.22;1.50;;;12.70;83.40;;;;;;5061214;28;20025;-61
2021/05/22 03:36:05;;;;;;;2.03;1.40;;;12.60;83.40;;;;;;5046752;28;20029;-61
2021/05/22 03:38:30;;;;;;;1.35;1.10;;;12.60;83.50;;;;;;5045493;28;20024;-61
2021/05/22 03:40:56;;;;;;;1.65;1.30;;;12.60;83.60;;;;;;5046389;28;20119;-62
2021/05/22 03:43:21;;;;;;;2.20;1.45;;;12.60;83.60;;;;;;5057173;28;20132;-61
2021/05/22 03:45:47;;;;;;;2.72;1.35;;;12.60;83.60;;;;;;5060241;28;20116;-61
2021/05/22 03:48:12;;;;;;;2.75;1.58;;;12.60;83.60;;;;;;5061594;28;20316;-61
2021/05/22 03:50:38;;;;;;;1.73;1.40;;;12.60;83.60;;;;;;5061864;28;20387;-61
2021/05/22 03:53:04;;;;;;;2.70;1.33;;;12.60;83.60;;;;;;5043044;28;20040;-61
2021/05/22 03:55:29;;;;;;;2.00;1.30;;;12.60;83.70;;;;;;5037556;28;20028;-61
2021/05/22 03:57:55;;;;;;;1.88;1.17;;;12.50;83.70;;;;;;5060749;28;20041;-61
2021/05/22 04:00:20;;;;;;;1.85;1.20;;;12.60;83.90;;;;;;5060058;28;20104;-61
2021/05/22 04:02:46;;;;;;;1.60;1.38;;;12.50;83.80;;;;;;5036635;28;20060;-61
2021/05/22 04:05:12;;;;;;;1.42;1.13;;;12.50;83.90;;;;;;5058037;28;20090;-61
2021/05/22 04:07:37;;;;;;;2.78;0.90;;;12.50;83.90;;;;;;5036201;28;20520;-61
2021/05/22 04:10:04;;;;;;;6.65;1.88;;;12.50;83.90;;;;;;5038062;28;20257;-61
2021/05/22 04:12:29;;;;;;;65.28;7.32;;;12.50;83.90;;;;;;5022239;28;20029;-61
2021/05/22 04:14:55;;;;;;;39.90;5.82;;;12.40;83.90;;;;;;5034721;28;20049;-61
2021/05/22 04:17:20;;;;;;;41.17;4.72;;;12.50;83.90;;;;;;5041315;28;20028;-61
2021/05/22 04:19:46;;;;;;;49.13;5.70;;;12.50;83.90;;;;;;5053008;28;20111;-61
2021/05/22 04:22:12;;;;;;;41.17;5.72;;;12.40;83.80;;;;;;5026738;28;549240;-61
2021/05/22 04:24:37;;;;;;;66.88;6.60;;;12.40;83.80;;;;;;5015756;28;20044;-61
2021/05/22 04:27:03;;;;;;;48.78;5.50;;;12.40;83.80;;;;;;5048814;28;20897;-61
2021/05/22 04:29:28;;;;;;;68.43;6.10;;;12.40;83.90;;;;;;5040249;28;20498;-61
2021/05/22 04:31:54;;;;;;;135.15;13.57;;;12.40;84.00;;;;;;5054946;28;20086;-61
2021/05/22 04:34:19;;;;;;;159.15;13.95;;;12.40;83.90;;;;;;5043312;28;20083;-61
2021/05/22 04:36:45;;;;;;;141.07;12.20;;;12.30;83.90;;;;;;5046605;28;20023;-61
2021/05/22 04:39:10;;;;;;;196.10;15.02;;;12.30;83.90;;;;;;5044495;28;20033;-61
2021/05/22 04:41:36;;;;;;;253.23;17.92;;;12.40;84.00;;;;;;5039607;28;20480;-61
2021/05/22 04:44:02;;;;;;;257.20;19.73;;;12.40;84.10;;;;;;5046930;28;20790;-61
2021/05/22 04:46:27;;;;;;;231.93;16.23;;;12.30;84.10;;;;;;5037921;28;20116;-61
2021/05/22 04:48:55;;;;;;;194.50;15.18;;;12.40;84.30;;;;;;5052308;28;20691;-61
2021/05/22 04:51:20;;;;;;;157.10;13.02;;;12.30;84.20;;;;;;5050709;28;20017;-61
2021/05/22 04:53:46;;;;;;;177.77;13.35;;;12.30;84.30;;;;;;5035118;28;20035;-61
2021/05/22 04:56:12;;;;;;;205.50;13.90;;;12.30;84.30;;;;;;5036733;28;20484;-61
2021/05/22 04:58:37;;;;;;;134.23;10.98;;;12.30;84.30;;;;;;5059340;28;20086;-61
2021/05/22 05:01:03;;;;;;;112.50;10.77;;;12.30;84.30;;;;;;5059178;28;20105;-61
2021/05/22 05:03:28;;;;;;;147.20;10.95;;;12.30;84.30;;;;;;5055051;28;20039;-61
2021/05/22 05:05:54;;;;;;;122.43;10.23;;;12.30;84.30;;;;;;5058441;28;20480;-61
2021/05/22 05:08:20;;;;;;;97.07;8.75;;;12.30;84.30;;;;;;5056751;28;20382;-61
2021/05/22 05:10:49;;;;;;;81.72;8.98;;;12.30;84.40;;;;;;5058140;28;20384;-61
2021/05/22 05:13:15;;;;;;;162.23;11.32;;;12.30;84.50;;;;;;5059439;28;20056;-61
2021/05/22 05:15:40;;;;;;;83.88;8.77;;;12.30;84.80;;;;;;5039815;28;20396;-61
2021/05/22 05:18:06;;;;;;;98.57;9.68;;;12.30;84.90;;;;;;5043626;28;20043;-61
2021/05/22 05:20:32;;;;;;;106.35;9.90;;;12.30;85.00;;;;;;5055740;28;20035;-61
2021/05/22 05:22:57;;;;;;;83.90;8.07;;;12.40;84.90;;;;;;5055172;28;20085;-61
2021/05/22 05:25:23;;;;;;;78.43;6.57;;;12.30;84.60;;;;;;5058351;28;20091;-61
2021/05/22 05:27:48;;;;;;;93.25;8.52;;;12.30;84.70;;;;;;5058952;28;20448;-61
2021/05/22 05:30:14;;;;;;;61.20;6.20;;;12.40;84.80;;;;;;5055682;28;20126;-61
2021/05/22 05:32:40;;;;;;;71.68;7.60;;;12.30;84.70;;;;;;5039117;28;20420;-61
2021/05/22 05:35:09;;;;;;;71.90;6.97;;;12.30;84.80;;;;;;5056307;28;20028;-61
2021/05/22 05:37:34;;;;;;;113.45;10.00;;;12.40;85.00;;;;;;5040588;28;20102;-61
2021/05/22 05:40:00;;;;;;;81.30;7.82;;;12.40;85.00;;;;;;5053362;28;20496;-61
2021/05/22 05:42:25;;;;;;;79.43;7.75;;;12.40;85.00;;;;;;5063195;28;20037;-61
2021/05/22 05:44:51;;;;;;;76.20;7.25;;;12.40;85.00;;;;;;5041196;28;20037;-61
2021/05/22 05:47:16;;;;;;;68.82;6.68;;;12.40;85.00;;;;;;5058385;28;20037;-61
2021/05/22 05:49:42;;;;;;;71.72;7.00;;;12.40;85.00;;;;;;5058012;28;20342;-61
2021/05/22 05:52:08;;;;;;;69.78;8.02;;;12.50;84.90;;;;;;5053947;28;20555;-61
2021/05/22 05:54:34;;;;;;;69.28;6.88;;;12.40;85.10;;;;;;5055889;28;20025;-61
2021/05/22 05:56:59;;;;;;;63.75;7.82;;;12.40;85.00;;;;;;5032631;28;20071;-61
2021/05/22 05:59:25;;;;;;;66.20;7.43;;;12.40;85.00;;;;;;5058395;28;20029;-61
2021/05/22 06:01:50;;;;;;;81.85;8.43;;;12.40;84.90;;;;;;5062593;28;20120;-61
2021/05/22 06:04:16;;;;;;;76.45;7.97;;;12.40;84.70;;;;;;5057196;28;20028;-61
2021/05/22 06:06:41;;;;;;;66.93;6.85;;;12.40;84.60;;;;;;5061563;28;20115;-61
2021/05/22 06:09:07;;;;;;;37.63;5.07;;;12.50;84.60;;;;;;5058184;28;20687;-61
2021/05/22 06:11:35;;;;;;;65.25;7.20;;;12.40;84.50;;;;;;5042533;28;20532;-61
2021/05/22 06:14:00;;;;;;;46.60;5.90;;;12.40;84.40;;;;;;5046065;28;20060;-61
2021/05/22 06:16:35;;;;;;;54.50;6.10;;;12.50;84.40;;;;;;5062004;28;20044;-61
2021/05/22 06:19:01;;;;;;;63.00;6.30;;;12.50;84.40;;;;;;5049234;28;20549;-61
2021/05/22 06:21:27;;;;;;;45.08;5.97;;;12.50;84.40;;;;;;5043583;28;20049;-62
2021/05/22 06:23:52;;;;;;;45.47;5.80;;;12.50;84.40;;;;;;5038777;28;20103;-61
2021/05/22 06:26:18;;;;;;;49.67;4.88;;;12.50;84.30;;;;;;5059982;28;20029;-61
2021/05/22 06:28:43;;;;;;;31.08;4.45;;;12.50;84.20;;;;;;5048464;28;20028;-61
2021/05/22 06:31:09;;;;;;;36.28;4.72;;;12.50;84.20;;;;;;5045929;28;20056;-61
2021/05/22 06:33:34;;;;;;;24.98;4.45;;;12.50;84.20;;;;;;5063821;28;20623;-61
2021/05/22 06:36:00;;;;;;;47.50;4.75;;;12.40;84.10;;;;;;5066222;28;20054;-61
2021/05/22 06:38:25;;;;;;;39.80;5.57;;;12.40;84.10;;;;;;5045306;28;20039;-61
2021/05/22 06:40:51;;;;;;;27.13;3.63;;;12.40;84.00;;;;;;5046390;28;20061;-61
2021/05/22 06:43:16;;;;;;;42.20;5.07;;;12.40;84.00;;;;;;5065463;28;20471;-61
2021/05/22 06:45:44;;;;;;;32.55;4.25;;;12.50;84.10;;;;;;5047210;28;20027;-61
2021/05/22 06:48:10;;;;;;;26.13;3.45;;;12.50;84.00;;;;;;5064767;28;20027;-61
2021/05/22 06:50:37;;;;;;;34.55;4.15;;;12.50;84.00;;;;;;5045592;28;20036;-61
2021/05/22 06:53:04;;;;;;;24.50;3.63;;;12.50;84.00;;;;;;5042804;28;20070;-61
2021/05/22 06:55:29;;;;;;;29.30;3.70;;;12.50;84.00;;;;;;5062018;28;20095;-61
2021/05/22 06:57:55;;;;;;;34.75;3.97;;;12.50;84.00;;;;;;5065234;28;20424;-61
2021/05/22 07:00:20;;;;;;;28.00;3.45;;;12.40;83.90;;;;;;5060899;28;20551;-61
2021/05/22 07:02:46;;;;;;;31.75;3.90;;;12.50;84.00;;;;;;5044618;28;20032;-61
2021/05/22 07:05:12;;;;;;;25.98;3.00;;;12.40;83.90;;;;;;5043795;28;20047;-61
2021/05/22 07:07:38;;;;;;;15.40;2.95;;;12.50;83.90;;;;;;5043202;28;20508;-61
2021/05/22 07:10:08;;;;;;;24.42;3.78;;;12.40;83.80;;;;;;5043345;28;20051;-61
2021/05/22 07:12:34;;;;;;;13.45;2.05;;;12.50;83.80;;;;;;5060930;28;20036;-61
2021/05/22 07:15:00;;;;;;;15.02;2.80;;;12.40;83.60;;;;;;5030904;28;20059;-61
2021/05/22 07:17:26;;;;;;;11.00;2.28;;;12.50;83.60;;;;;;5025696;28;20025;-61
2021/05/22 07:19:51;;;;;;;13.65;2.50;;;12.50;83.40;;;;;;5047509;28;20028;-61
2021/05/22 07:22:17;;;;;;;18.67;2.72;;;12.50;83.20;;;;;;5043083;28;20711;-62
2021/05/22 07:24:42;;;;;;;13.38;2.28;;;12.50;83.20;;;;;;5045065;28;20549;-62
2021/05/22 07:27:08;;;;;;;10.75;1.85;;;12.50;83.20;;;;;;5065100;28;20049;-61
2021/05/22 07:29:33;;;;;;;9.52;1.85;;;12.50;83.10;;;;;;5047166;28;20056;-61
2021/05/22 07:31:59;;;;;;;10.02;1.55;;;12.50;83.10;;;;;;5047723;28;20059;-61
2021/05/22 07:34:25;;;;;;;10.50;1.55;;;12.50;83.10;;;;;;5044565;28;20112;-61
2021/05/22 07:36:50;;;;;;;6.25;1.10;;;12.50;83.00;;;;;;5044118;28;20795;-61
2021/05/22 07:39:16;;;;;;;7.93;1.63;;;12.50;83.00;;;;;;5051902;28;20037;-61
2021/05/22 07:41:42;;;;;;;14.90;1.77;;;12.50;83.00;;;;;;5050497;28;20502;-61
2021/05/22 07:44:07;;;;;;;4.07;1.40;;;12.50;82.90;;;;;;5052032;28;20499;-61
2021/05/22 07:46:33;;;;;;;5.30;1.20;;;12.50;82.90;;;;;;5055433;28;20121;-61
2021/05/22 07:48:58;;;;;;;9.55;1.73;;;12.50;82.90;;;;;;5046874;28;20048;-61
2021/05/22 07:51:24;;;;;;;11.70;1.40;;;12.50;82.80;;;;;;5049343;28;20029;-61
2021/05/22 07:53:49;;;;;;;2.97;0.88;;;12.50;82.80;;;;;;5067294;28;20411;-61
2021/05/22 07:56:15;;;;;;;5.80;1.05;;;12.50;82.80;;;;;;5064462;28;20515;-61
2021/05/22 07:58:41;;;;;;;5.28;1.10;;;12.50;82.70;;;;;;5064098;28;20029;-62
2021/05/22 08:01:06;;;;;;;6.45;1.52;;;12.50;82.60;;;;;;5045345;28;20106;-60
2021/05/22 08:03:32;;;;;;;6.03;1.33;;;12.60;82.50;;;;;;5065964;28;20032;-62
2021/05/22 08:05:57;;;;;;;12.90;1.50;;;12.60;82.40;;;;;;5062566;28;20111;-61
2021/05/22 08:08:23;;;;;;;4.65;1.10;;;12.60;82.40;;;;;;5061549;28;20028;-61
2021/05/22 08:10:48;;;;;;;8.20;1.50;;;12.60;82.30;;;;;;5044515;28;20049;-62
2021/05/22 08:13:14;;;;;;;6.22;1.30;;;12.70;82.30;;;;;;5045820;28;20020;-61
2021/05/22 08:15:40;;;;;;;4.95;1.20;;;12.60;81.90;;;;;;5061820;28;20379;-61
2021/05/22 08:18:06;;;;;;;9.55;1.95;;;12.60;82.00;;;;;;5043991;28;20019;-62
2021/05/22 08:20:31;;;;;;;8.70;1.60;;;12.70;82.20;;;;;;5063107;28;20033;-61
2021/05/22 08:22:57;;;;;;;10.35;1.63;;;12.70;82.00;;;;;;5044455;28;20131;-61
2021/05/22 08:25:23;;;;;;;7.82;1.42;;;12.70;81.80;;;;;;5045664;28;20090;-61
2021/05/22 08:27:50;;;;;;;7.45;1.40;;;12.70;81.20;;;;;;5046153;28;20052;-62
2021/05/22 08:30:16;;;;;;;16.25;1.90;;;12.80;80.90;;;;;;5045695;28;20039;-61
2021/05/22 08:32:42;;;;;;;11.00;1.40;;;12.80;80.00;;;;;;5043645;28;20032;-61
2021/05/22 08:35:08;;;;;;;15.07;1.50;;;12.90;79.80;;;;;;5045083;28;20488;-61
2021/05/22 08:37:33;;;;;;;22.40;3.72;;;12.90;79.50;;;;;;5045871;28;20040;-61
2021/05/22 08:39:59;;;;;;;18.30;2.20;;;13.00;79.30;;;;;;5042438;28;20515;-61
2021/05/22 08:42:26;;;;;;;33.33;3.50;;;13.00;79.00;;;;;;5059837;28;20058;-62
2021/05/22 08:44:51;;;;;;;66.72;4.75;;;13.00;78.90;;;;;;5043111;28;20029;-61
2021/05/22 08:47:17;;;;;;;22.95;3.13;;;13.00;78.60;;;;;;5044584;28;20476;-61
2021/05/22 08:49:43;;;;;;;25.42;3.17;;;13.10;78.90;;;;;;5043948;28;20110;-61
2021/05/22 08:52:10;;;;;;;26.20;2.97;;;13.20;79.00;;;;;;5045715;28;20051;-61
2021/05/22 08:54:35;;;;;;;28.48;3.65;;;13.20;79.00;;;;;;5060989;28;20040;-61
2021/05/22 08:57:01;;;;;;;18.15;2.30;;;13.20;79.00;;;;;;5062968;28;20658;-61
2021/05/22 08:59:27;;;;;;;30.33;3.40;;;13.20;78.90;;;;;;5064046;28;20121;-61
2021/05/22 09:01:52;;;;;;;25.95;3.28;;;13.20;78.80;;;;;;5062883;28;20119;-62
2021/05/22 09:04:18;;;;;;;41.40;3.83;;;13.30;78.90;;;;;;5062869;28;20040;-61
2021/05/22 09:07:03;;;;;;;29.70;3.83;;;13.40;78.80;;;;;;5042833;28;20079;-61
2021/05/22 09:09:40;;;;;;;30.05;3.53;;;13.50;78.40;;;;;;5044849;28;20031;-61
2021/05/22 09:12:05;;;;;;;25.27;2.70;;;13.60;77.80;;;;;;5058951;28;20041;-60
2021/05/22 09:14:51;;;;;;;24.95;3.35;;;13.60;77.50;;;;;;5028700;28;20037;-61
2021/05/22 09:17:17;;;;;;;27.70;3.53;;;13.60;77.20;;;;;;5060861;28;20364;-60
2021/05/22 09:19:42;;;;;;;32.15;3.42;;;13.60;76.60;;;;;;5045050;28;20036;-62
2021/05/22 09:22:26;;;;;;;50.75;4.90;;;13.70;76.50;;;;;;5043262;28;20149;-62
2021/05/22 09:24:55;;;;;;;38.08;4.82;;;13.80;76.50;;;;;;5050453;28;20519;-61
2021/05/22 09:27:21;;;;;;;51.97;5.22;;;13.80;76.40;;;;;;5056044;28;20420;-61
2021/05/22 09:29:48;;;;;;;41.25;4.68;;;13.90;76.40;;;;;;5049449;28;20116;-61
2021/05/22 09:32:14;;;;;;;35.63;3.67;;;13.90;76.00;;;;;;5052975;28;20159;-61
2021/05/22 09:34:40;;;;;;;47.55;4.72;;;14.00;75.70;;;;;;5039215;28;20136;-62
2021/05/22 09:37:12;;;;;;;48.75;4.68;;;14.00;75.30;;;;;;5054699;28;20025;-61
2021/05/22 09:39:47;;;;;;;38.22;4.95;;;14.00;74.90;;;;;;5046360;28;20693;-61
2021/05/22 09:42:13;;;;;;;31.67;3.92;;;14.10;74.70;;;;;;5045652;28;20036;-61
2021/05/22 09:44:39;;;;;;;50.40;5.50;;;14.10;73.90;;;;;;5044445;28;20511;-61
2021/05/22 09:47:04;;;;;;;33.22;4.40;;;14.10;73.20;;;;;;5061064;28;20021;-61
2021/05/22 09:49:32;;;;;;;41.60;4.07;;;14.20;72.90;;;;;;5048941;28;20075;-61
2021/05/22 09:52:05;;;;;;;46.67;4.47;;;14.20;72.20;;;;;;5048832;28;20055;-61
2021/05/22 09:54:46;;;;;;;35.78;3.83;;;14.30;72.20;;;;;;5065649;28;20017;-61
2021/05/22 09:57:19;;;;;;;37.13;4.38;;;14.30;72.00;;;;;;5046246;28;20035;-62
2021/05/22 10:00:16;;;;;;;47.15;4.72;;;14.30;71.90;;;;;;5058217;28;20476;-61
2021/05/22 10:02:58;;;;;;;40.25;3.72;;;14.40;72.20;;;;;;5035043;28;20053;-60
2021/05/22 10:05:31;;;;;;;43.50;6.10;;;14.40;71.60;;;;;;5060368;28;20029;-61
2021/05/22 10:07:57;;;;;;;43.75;5.18;;;14.40;71.40;;;;;;5033550;28;20025;-62
2021/05/22 10:10:24;;;;;;;45.70;5.13;;;14.50;71.10;;;;;;5055335;28;20053;-61
2021/05/22 10:12:50;;;;;;;37.45;3.97;;;14.50;70.80;;;;;;5045502;28;20073;-61
2021/05/22 10:15:17;;;;;;;25.45;4.97;;;14.50;70.70;;;;;;5016453;28;20048;-61
2021/05/22 10:17:43;;;;;;;41.63;5.63;;;14.60;71.30;;;;;;5028215;28;20041;-61
2021/05/22 10:20:09;;;;;;;42.05;5.72;;;14.60;70.50;;;;;;5039436;28;20054;-60
2021/05/22 10:22:35;;;;;;;62.17;6.15;;;14.60;70.40;;;;;;5045472;28;20064;-60
2021/05/22 10:25:05;;;;;;;35.35;5.20;;;14.60;70.00;;;;;;5047215;28;20217;-61
2021/05/22 10:27:32;;;;;;;32.08;4.85;;;14.60;70.00;;;;;;5047244;28;20046;-60
2021/05/22 10:29:57;;;;;;;111.43;9.77;;;14.70;70.10;;;;;;5037237;28;20040;-61
2021/05/22 10:32:25;;;;;;;48.30;5.65;;;14.70;69.80;;;;;;5041668;28;20082;-61
2021/05/22 10:34:50;;;;;;;36.30;4.95;;;14.80;69.80;;;;;;5018636;28;20082;-60
2021/05/22 10:37:40;;;;;;;51.67;4.75;;;14.80;69.50;;;;;;5053420;28;20490;-61
2021/05/22 10:40:06;;;;;;;28.35;4.07;;;14.90;69.10;;;;;;5053064;28;21002;-60
2021/05/22 10:42:32;;;;;;;35.97;4.50;;;14.90;68.70;;;;;;5045003;28;20534;-61
2021/05/22 10:44:58;;;;;;;31.90;3.97;;;15.00;68.50;;;;;;5044307;28;20037;-61
2021/05/22 10:47:28;;;;;;;47.22;5.25;;;15.10;68.40;;;;;;5064214;28;20080;-61
2021/05/22 10:49:54;;;;;;;40.00;5.80;;;15.10;68.40;;;;;;5066257;28;20085;-60
2021/05/22 10:52:23;;;;;;;29.23;3.13;;;15.20;69.10;;;;;;5042506;28;20119;-61
2021/05/22 10:55:10;;;;;;;33.70;4.72;;;15.20;67.80;;;;;;5063489;28;20013;-60
2021/05/22 10:57:42;;;;;;;30.27;4.30;;;15.40;67.50;;;;;;5057890;28;20053;-61
2021/05/22 11:00:14;;;;;;;34.40;4.85;;;15.40;67.20;;;;;;5064197;28;20056;-62
2021/05/22 11:02:41;;;;;;;41.55;5.35;;;15.40;67.30;;;;;;5065889;28;20032;-61
2021/05/22 11:05:27;;;;;;;36.90;4.53;;;15.30;66.70;;;;;;5064579;28;20060;-62
2021/05/22 11:08:04;;;;;;;39.33;4.88;;;15.60;66.90;;;;;;5061336;28;20020;-60
2021/05/22 11:10:45;;;;;;;17.90;3.40;;;15.50;66.80;;;;;;5063036;28;20044;-61
2021/05/22 11:13:20;;;;;;;57.08;5.28;;;15.50;66.90;;;;;;5047508;28;20352;-60
2021/05/22 11:15:48;;;;;;;33.50;3.70;;;15.60;66.70;;;;;;5063770;28;20098;-60
2021/05/22 11:18:23;;;;;;;33.60;4.53;;;15.60;66.20;;;;;;5064878;28;20039;-62
2021/05/22 11:21:08;;;;;;;;;;;15.80;65.90;;;;;;5048442;28;20468;-60
2021/05/22 11:23:58;;;;;;;18.48;2.65;;;15.90;65.20;;;;;;5057274;28;19916;-61
2021/05/22 11:26:49;;;;;;;27.85;3.30;;;16.00;64.20;;;;;;5045316;28;20568;-60
2021/05/22 11:29:15;;;;;;;29.20;3.67;;;16.10;63.90;;;;;;5057894;28;20097;-60
2021/05/22 11:31:41;;;;;;;34.65;4.80;;;16.30;63.70;;;;;;5040598;28;20041;-60
2021/05/22 11:34:25;;;;;;;33.40;4.28;;;16.40;63.70;;;;;;5041827;28;20071;-60
2021/05/22 11:37:31;;;;;;;51.97;5.10;;;16.50;63.20;;;;;;5052200;28;20408;-61
2021/05/22 11:39:57;;;;;;;51.30;5.07;;;16.60;63.20;;;;;;5029023;28;20071;-60
2021/05/22 11:42:36;;;;;;;40.03;5.30;;;16.60;63.60;;;;;;5044624;28;20492;-60
2021/05/22 11:45:04;;;;;;;66.03;6.43;;;16.60;63.60;;;;;;5042626;28;20627;-61
2021/05/22 11:47:33;;;;;;;31.75;3.83;;;16.70;63.90;;;;;;5045389;28;20581;-61
2021/05/22 11:49:59;;;;;;;49.63;4.57;;;16.70;63.90;;;;;;5061402;28;20037;-61
2021/05/22 11:52:31;;;;;;;33.22;4.13;;;16.70;64.00;;;;;;5044798;28;20016;-60
2021/05/22 11:54:57;;;;;;;24.38;4.20;;;16.70;63.40;;;;;;5044230;28;20123;-61
2021/05/22 11:57:23;;;;;;;29.63;2.50;;;16.70;62.90;;;;;;5047568;28;20070;-60
2021/05/22 11:59:49;;;;;;;26.20;2.92;;;16.80;62.90;;;;;;5029631;28;20024;-62
2021/05/22 12:02:33;;;;;;;20.88;2.65;;;16.70;62.30;;;;;;5029962;28;21607;-60
2021/05/22 12:04:58;;;;;;;39.28;5.53;;;16.80;62.00;;;;;;5050292;28;20492;-61
2021/05/22 12:07:24;;;;;;;36.42;3.58;;;16.80;62.00;;;;;;5057712;28;20072;-59
2021/05/22 12:09:50;;;;;;;27.40;4.07;;;16.80;61.90;;;;;;5058991;28;20108;-61
2021/05/22 12:12:15;;;;;;;56.25;4.97;;;16.90;61.40;;;;;;5043297;28;20046;-61
2021/05/22 12:14:45;;;;;;;58.60;5.88;;;17.00;61.30;;;;;;5042343;28;20021;-60
2021/05/22 12:17:14;;;;;;;43.15;5.28;;;17.10;61.50;;;;;;5051665;28;20028;-60
2021/05/22 12:19:41;;;;;;;56.28;5.13;;;17.20;61.10;;;;;;5036090;28;20139;-60
2021/05/22 12:22:07;;;;;;;55.63;5.40;;;17.30;60.90;;;;;;5054257;28;20037;-60
2021/05/22 12:24:33;;;;;;;37.17;4.25;;;17.30;60.20;;;;;;5056420;28;20036;-60
2021/05/22 12:26:58;;;;;;;49.20;4.90;;;17.40;60.10;;;;;;5014359;28;20033;-62
2021/05/22 12:29:25;;;;;;;21.52;3.30;;;17.50;59.70;;;;;;5035500;28;20049;-60
2021/05/22 12:32:00;;;;;;;47.70;5.80;;;17.50;59.30;;;;;;5035427;28;20513;-62
2021/05/22 12:34:33;;;;;;;60.97;5.40;;;17.70;59.50;;;;;;5052719;28;20028;-62
2021/05/22 12:37:06;;;;;;;113.90;11.18;;;17.80;59.50;;;;;;5056463;28;20025;-60
2021/05/22 12:39:32;;;;;;;69.30;8.05;;;17.80;58.90;;;;;;5037380;28;20495;-61
2021/05/22 12:41:58;;;;;;;79.53;8.38;;;17.90;59.00;;;;;;5045549;28;20059;-61